createdAt,value
2018-01-20T00:00:46.411Z,8.00
2018-01-20T00:01:45.928Z,8.00
2018-01-20T00:03:39.741Z,8.00
2018-01-20T00:04:39.637Z,8.00
2018-01-20T00:06:33.874Z,8.00
2018-01-20T00:07:33.773Z,8.00
2018-01-20T00:09:28.321Z,8.00
2018-01-20T00:10:28.202Z,8.00
2018-01-20T00:12:22.034Z,8.00
2018-01-20T00:13:21.955Z,8.00
2018-01-20T00:15:16.232Z,8.00
2018-01-20T00:16:16.126Z,8.00
2018-01-20T00:18:10.393Z,8.00
2018-01-20T00:19:10.301Z,8.00
2018-01-20T00:21:04.622Z,8.00
2018-01-20T00:22:04.540Z,8.00
2018-01-20T00:23:58.843Z,8.00
2018-01-20T00:24:58.813Z,8.00
2018-01-20T00:26:51.353Z,8.00
2018-01-20T00:27:51.387Z,8.00
2018-01-20T00:29:44.500Z,8.00
2018-01-20T00:30:44.315Z,8.00
2018-01-20T00:32:37.913Z,8.00
2018-01-20T00:33:37.155Z,8.00
2018-01-20T00:35:31.012Z,8.00
2018-01-20T00:36:30.925Z,8.00
2018-01-20T00:38:25.414Z,8.00
2018-01-20T00:39:24.921Z,8.00
2018-01-20T00:41:18.178Z,8.00
2018-01-20T00:42:17.753Z,0.00
2018-01-20T00:44:10.532Z,0.00
2018-01-20T00:45:10.431Z,0.00
2018-01-20T00:47:03.254Z,0.00
2018-01-20T00:48:03.366Z,0.00
2018-01-20T00:49:56.879Z,0.00
2018-01-20T00:50:55.955Z,0.00
2018-01-20T00:52:49.277Z,0.00
2018-01-20T00:53:48.784Z,0.00
2018-01-20T00:55:41.825Z,0.00
2018-01-20T00:56:41.433Z,0.00
2018-01-20T00:58:34.268Z,0.00
2018-01-20T00:59:34.173Z,0.00
2018-01-20T01:01:27.049Z,0.00
2018-01-20T01:02:26.911Z,0.00
2018-01-20T01:04:19.759Z,0.00
2018-01-20T01:05:19.664Z,0.00
2018-01-20T01:07:12.854Z,0.00
2018-01-20T01:08:12.432Z,0.00
2018-01-20T01:10:05.767Z,0.00
2018-01-20T01:11:05.686Z,0.00
2018-01-20T01:12:58.535Z,0.00
2018-01-20T01:13:58.421Z,0.00
2018-01-20T01:15:52.675Z,0.00
2018-01-20T01:16:52.580Z,0.00
2018-01-20T01:18:46.956Z,0.00
2018-01-20T01:19:46.991Z,0.00
2018-01-20T01:21:39.448Z,0.00
2018-01-20T01:22:39.342Z,0.00
2018-01-20T01:24:32.197Z,0.00
2018-01-20T01:25:32.087Z,0.00
2018-01-20T01:27:24.922Z,0.00
2018-01-20T01:28:24.904Z,0.00
2018-01-20T01:30:17.707Z,0.00
2018-01-20T01:31:17.583Z,0.00
2018-01-20T01:33:10.420Z,0.00
2018-01-20T01:34:10.336Z,0.00
2018-01-20T01:36:03.495Z,0.00
2018-01-20T01:37:03.473Z,0.00
2018-01-20T01:38:56.613Z,0.00
2018-01-20T01:39:55.858Z,0.00
2018-01-20T01:41:48.700Z,0.00
2018-01-20T01:42:48.992Z,0.00
2018-01-20T01:44:41.455Z,0.00
2018-01-20T01:45:41.706Z,0.00
2018-01-20T01:47:34.313Z,0.00
2018-01-20T01:48:34.078Z,0.00
2018-01-20T01:50:27.328Z,0.00
2018-01-20T01:51:27.092Z,0.00
2018-01-20T01:53:20.459Z,0.00
2018-01-20T01:54:19.575Z,0.00
2018-01-20T01:56:12.998Z,0.00
2018-01-20T01:57:12.397Z,0.00
2018-01-20T01:59:05.604Z,0.00
2018-01-20T02:00:05.378Z,0.00
2018-01-20T02:01:58.543Z,0.00
2018-01-20T02:02:58.068Z,0.00
2018-01-20T02:04:51.819Z,0.00
2018-01-20T02:05:51.290Z,0.00
2018-01-20T02:07:43.876Z,0.00
2018-01-20T02:08:43.708Z,0.00
2018-01-20T02:10:36.492Z,0.00
2018-01-20T02:11:36.543Z,0.00
2018-01-20T02:13:29.657Z,0.00
2018-01-20T02:14:29.412Z,0.00
2018-01-20T02:16:22.647Z,0.00
2018-01-20T02:17:22.069Z,0.00
2018-01-20T02:19:16.146Z,0.00
2018-01-20T02:20:16.063Z,0.00
2018-01-20T02:22:11.351Z,0.00
2018-01-20T02:23:11.259Z,0.00
2018-01-20T02:25:06.674Z,0.00
2018-01-20T02:26:06.482Z,0.00
2018-01-20T02:27:59.768Z,0.00
2018-01-20T02:28:59.631Z,0.00
2018-01-20T02:30:53.546Z,0.00
2018-01-20T02:31:53.477Z,0.00
2018-01-20T02:33:48.050Z,0.00
2018-01-20T02:34:47.510Z,0.00
2018-01-20T02:36:41.754Z,0.00
2018-01-20T02:37:41.672Z,0.00
2018-01-20T02:39:35.685Z,0.00
2018-01-20T02:40:35.903Z,0.00
2018-01-20T02:42:29.011Z,0.00
2018-01-20T02:43:29.325Z,0.00
2018-01-20T02:45:22.188Z,0.00
2018-01-20T02:46:21.992Z,0.00
2018-01-20T02:48:15.188Z,0.00
2018-01-20T02:49:14.789Z,0.00
2018-01-20T02:51:07.663Z,0.00
2018-01-20T02:52:07.469Z,0.00
2018-01-20T02:54:00.111Z,0.00
2018-01-20T02:55:00.076Z,0.00
2018-01-20T02:56:54.282Z,0.00
2018-01-20T02:57:53.185Z,0.00
2018-01-20T02:59:45.638Z,0.00
2018-01-20T03:00:45.542Z,0.00
2018-01-20T03:02:38.785Z,0.00
2018-01-20T03:03:38.667Z,0.00
2018-01-20T03:05:31.101Z,0.00
2018-01-20T03:06:31.027Z,0.00
2018-01-20T03:08:24.281Z,0.00
2018-01-20T03:09:23.784Z,0.00
2018-01-20T03:11:16.673Z,0.00
2018-01-20T03:12:16.556Z,0.00
2018-01-20T03:14:09.989Z,0.00
2018-01-20T03:15:09.274Z,0.00
2018-01-20T03:17:02.668Z,0.00
2018-01-20T03:18:02.611Z,0.00
2018-01-20T03:19:55.073Z,0.00
2018-01-20T03:20:55.184Z,0.00
2018-01-20T03:22:49.048Z,0.00
2018-01-20T03:23:48.971Z,0.00
2018-01-20T03:25:46.540Z,0.00
2018-01-20T03:28:00.646Z,0.00
2018-01-20T03:29:00.577Z,0.00
2018-01-20T03:31:14.512Z,0.00
2018-01-20T03:32:13.989Z,0.00
2018-01-20T03:34:10.305Z,0.00
2018-01-20T03:35:09.967Z,0.00
2018-01-20T03:37:05.107Z,0.00
2018-01-20T03:38:04.190Z,0.00
2018-01-20T03:39:58.447Z,0.00
2018-01-20T03:40:58.356Z,0.00
2018-01-20T03:42:52.905Z,0.00
2018-01-20T03:43:52.596Z,0.00
2018-01-20T03:45:45.241Z,0.00
2018-01-20T03:46:45.135Z,0.00
2018-01-20T03:48:38.361Z,0.00
2018-01-20T03:49:38.152Z,0.00
2018-01-20T03:51:30.691Z,0.00
2018-01-20T03:52:30.920Z,0.00
2018-01-20T03:54:23.464Z,0.00
2018-01-20T03:55:23.752Z,0.00
2018-01-20T03:57:16.193Z,0.00
2018-01-20T03:58:16.099Z,0.00
2018-01-20T04:00:09.297Z,0.00
2018-01-20T04:01:08.860Z,0.00
2018-01-20T04:03:01.735Z,0.00
2018-01-20T04:04:01.605Z,0.00
2018-01-20T04:05:55.890Z,0.00
2018-01-20T04:06:55.781Z,0.00
2018-01-20T04:08:49.753Z,0.00
2018-01-20T04:09:49.668Z,0.00
2018-01-20T04:11:42.506Z,0.00
2018-01-20T04:12:42.411Z,0.00
2018-01-20T04:14:35.270Z,0.00
2018-01-20T04:15:35.153Z,0.00
2018-01-20T04:17:28.023Z,0.00
2018-01-20T04:18:27.906Z,0.00
2018-01-20T04:20:21.149Z,0.00
2018-01-20T04:21:20.666Z,0.00
2018-01-20T04:23:14.926Z,0.00
2018-01-20T04:24:14.814Z,0.00
2018-01-20T04:26:10.026Z,0.00
2018-01-20T04:27:08.722Z,0.00
2018-01-20T04:29:01.990Z,0.00
2018-01-20T04:30:01.639Z,0.00
2018-01-20T04:31:54.313Z,0.00
2018-01-20T04:32:54.359Z,0.00
2018-01-20T04:34:47.098Z,0.00
2018-01-20T04:35:47.210Z,0.00
2018-01-20T04:37:41.196Z,0.00
2018-01-20T04:38:41.110Z,0.00
2018-01-20T04:40:35.768Z,0.00
2018-01-20T04:41:35.651Z,0.00
2018-01-20T04:43:28.668Z,0.00
2018-01-20T04:44:28.800Z,0.00
2018-01-20T04:46:21.606Z,0.00
2018-01-20T04:47:21.139Z,0.00
2018-01-20T04:49:14.383Z,0.00
2018-01-20T04:50:13.901Z,0.00
2018-01-20T04:52:07.577Z,0.00
2018-01-20T04:53:06.975Z,0.00
2018-01-20T04:55:01.886Z,0.00
2018-01-20T04:56:01.815Z,0.00
2018-01-20T04:57:56.105Z,0.00
2018-01-20T04:58:55.974Z,0.00
2018-01-20T05:00:50.012Z,0.00
2018-01-20T05:01:50.233Z,0.00
2018-01-20T05:03:43.388Z,0.00
2018-01-20T05:04:42.875Z,0.00
2018-01-20T05:06:36.319Z,0.00
2018-01-20T05:07:35.519Z,0.00
2018-01-20T05:09:28.797Z,0.00
2018-01-20T05:10:28.677Z,0.00
2018-01-20T05:12:21.808Z,0.00
2018-01-20T05:13:21.543Z,0.00
2018-01-20T05:15:15.037Z,0.00
2018-01-20T05:16:14.665Z,0.00
2018-01-20T05:18:07.410Z,0.00
2018-01-20T05:19:07.607Z,0.00
2018-01-20T05:21:00.076Z,0.00
2018-01-20T05:21:59.923Z,0.00
2018-01-20T05:23:53.161Z,0.00
2018-01-20T05:24:52.736Z,0.00
2018-01-20T05:26:45.462Z,0.00
2018-01-20T05:27:45.282Z,0.00
2018-01-20T05:29:38.471Z,0.00
2018-01-20T05:30:38.275Z,0.00
2018-01-20T05:32:31.314Z,0.00
2018-01-20T05:33:30.881Z,0.00
2018-01-20T05:35:24.103Z,0.00
2018-01-20T05:36:24.019Z,0.00
2018-01-20T05:38:17.002Z,0.00
2018-01-20T05:39:16.430Z,0.00
2018-01-20T05:41:09.412Z,0.00
2018-01-20T05:42:09.324Z,0.00
2018-01-20T05:44:02.842Z,0.00
2018-01-20T05:45:02.076Z,0.00
2018-01-20T05:46:55.325Z,0.00
2018-01-20T05:47:55.221Z,0.00
2018-01-20T05:49:48.114Z,0.00
2018-01-20T05:50:47.622Z,0.00
2018-01-20T05:52:41.013Z,0.00
2018-01-20T05:53:40.325Z,0.00
2018-01-20T05:55:33.184Z,0.00
2018-01-20T05:56:33.112Z,0.00
2018-01-20T05:58:25.916Z,0.00
2018-01-20T05:59:25.825Z,0.00
2018-01-20T06:01:19.252Z,0.00
2018-01-20T06:02:19.103Z,0.00
2018-01-20T06:04:11.969Z,0.00
2018-01-20T06:05:12.024Z,0.00
2018-01-20T06:07:04.710Z,0.00
2018-01-20T06:08:04.979Z,0.00
2018-01-20T06:09:58.435Z,0.00
2018-01-20T06:10:57.689Z,0.00
2018-01-20T06:12:51.168Z,0.00
2018-01-20T06:13:50.509Z,0.00
2018-01-20T06:15:43.613Z,0.00
2018-01-20T06:16:43.138Z,0.00
2018-01-20T06:18:36.337Z,0.00
2018-01-20T06:19:36.200Z,0.00
2018-01-20T06:21:29.643Z,0.00
2018-01-20T06:22:29.007Z,0.00
2018-01-20T06:24:22.066Z,0.00
2018-01-20T06:25:22.132Z,0.00
2018-01-20T06:27:15.325Z,0.00
2018-01-20T06:28:14.637Z,0.00
2018-01-20T06:30:08.263Z,0.00
2018-01-20T06:31:08.102Z,0.00
2018-01-20T06:33:00.955Z,0.00
2018-01-20T06:34:00.955Z,0.00
2018-01-20T06:35:53.437Z,0.00
2018-01-20T06:36:53.601Z,0.00
2018-01-20T06:38:47.589Z,0.00
2018-01-20T06:39:47.491Z,0.00
2018-01-20T06:41:42.398Z,0.00
2018-01-20T06:42:41.940Z,0.00
2018-01-20T06:44:34.942Z,0.00
2018-01-20T06:45:34.920Z,0.00
2018-01-20T06:47:28.275Z,0.00
2018-01-20T06:48:27.793Z,0.00
2018-01-20T06:50:20.685Z,0.00
2018-01-20T06:51:20.518Z,0.00
2018-01-20T06:53:25.713Z,0.00
2018-01-20T06:54:25.584Z,0.00
2018-01-20T06:56:18.432Z,0.00
2018-01-20T06:57:18.325Z,0.00
2018-01-20T06:59:11.186Z,0.00
2018-01-20T07:00:11.496Z,0.00
2018-01-20T07:02:06.878Z,0.00
2018-01-20T07:03:06.797Z,0.00
2018-01-20T07:05:01.067Z,0.00
2018-01-20T07:06:00.990Z,0.00
2018-01-20T07:07:55.035Z,0.00
2018-01-20T07:08:54.960Z,0.00
2018-01-20T07:10:49.242Z,0.00
2018-01-20T07:11:49.117Z,0.00
2018-01-20T07:13:43.412Z,0.00
2018-01-20T07:14:43.314Z,0.00
2018-01-20T07:16:39.195Z,0.00
2018-01-20T07:17:38.726Z,0.00
2018-01-20T07:19:31.668Z,0.00
2018-01-20T07:20:31.585Z,0.00
2018-01-20T07:22:24.951Z,0.00
2018-01-20T07:23:24.853Z,0.00
2018-01-20T07:25:17.844Z,0.00
2018-01-20T07:26:17.719Z,0.00
2018-01-20T07:28:11.949Z,0.00
2018-01-20T07:29:11.846Z,0.00
2018-01-20T07:31:05.858Z,0.00
2018-01-20T07:32:05.762Z,0.00
2018-01-20T07:33:59.030Z,0.00
2018-01-20T07:34:58.507Z,0.00
2018-01-20T07:36:51.698Z,0.00
2018-01-20T07:37:51.258Z,0.00
2018-01-20T07:39:45.502Z,0.00
2018-01-20T07:40:45.405Z,0.00
2018-01-20T07:42:39.703Z,0.00
2018-01-20T07:43:39.210Z,0.00
2018-01-20T07:45:33.383Z,0.00
2018-01-20T07:46:32.782Z,0.00
2018-01-20T07:48:25.207Z,0.00
2018-01-20T07:49:25.524Z,0.00
2018-01-20T07:51:18.017Z,0.00
2018-01-20T07:52:18.262Z,0.00
2018-01-20T07:54:12.136Z,4.00
2018-01-20T07:55:12.037Z,4.00
2018-01-20T07:57:05.271Z,0.00
2018-01-20T07:58:05.167Z,0.00
2018-01-20T07:59:59.533Z,0.00
2018-01-20T08:00:59.472Z,0.00
2018-01-20T08:02:51.972Z,0.00
2018-01-20T08:03:51.935Z,0.00
2018-01-20T08:05:44.679Z,0.00
2018-01-20T08:06:44.888Z,0.00
2018-01-20T08:08:37.671Z,4.00
2018-01-20T08:09:37.486Z,4.00
2018-01-20T08:11:31.563Z,0.00
2018-01-20T08:12:31.469Z,0.00
2018-01-20T08:14:25.924Z,0.00
2018-01-20T08:15:25.405Z,4.00
2018-01-20T08:17:19.670Z,0.00
2018-01-20T08:18:18.515Z,4.00
2018-01-20T08:20:12.393Z,0.00
2018-01-20T08:21:12.313Z,4.00
2018-01-20T08:23:06.767Z,4.00
2018-01-20T08:24:06.513Z,0.00
2018-01-20T08:26:00.799Z,4.00
2018-01-20T08:27:00.717Z,0.00
2018-01-20T08:28:54.953Z,4.00
2018-01-20T08:29:54.858Z,0.00
2018-01-20T08:31:49.175Z,0.00
2018-01-20T08:32:48.943Z,4.00
2018-01-20T08:34:42.883Z,0.00
2018-01-20T08:35:42.812Z,4.00
2018-01-20T08:37:36.093Z,0.00
2018-01-20T08:38:35.986Z,4.00
2018-01-20T08:40:30.402Z,8.00
2018-01-20T08:41:30.295Z,0.00
2018-01-20T08:43:24.346Z,0.00
2018-01-20T08:44:24.288Z,4.00
2018-01-20T08:46:20.109Z,4.00
2018-01-20T08:47:19.900Z,4.00
2018-01-20T08:49:13.162Z,16.00
2018-01-20T08:50:13.028Z,8.00
2018-01-20T08:52:07.054Z,0.00
2018-01-20T08:53:07.105Z,4.00
2018-01-20T08:55:01.023Z,0.00
2018-01-20T08:56:00.860Z,0.00
2018-01-20T08:57:55.615Z,4.00
2018-01-20T08:58:55.167Z,4.00
2018-01-20T09:00:49.093Z,4.00
2018-01-20T09:01:48.933Z,4.00
2018-01-20T09:03:44.044Z,8.00
2018-01-20T09:04:43.978Z,8.00
2018-01-20T09:06:36.760Z,4.00
2018-01-20T09:07:36.758Z,16.00
2018-01-20T09:09:30.140Z,12.00
2018-01-20T09:10:29.676Z,12.00
2018-01-20T09:12:22.926Z,12.00
2018-01-20T09:13:22.634Z,12.00
2018-01-20T09:15:16.649Z,4.00
2018-01-20T09:16:16.570Z,4.00
2018-01-20T09:18:10.848Z,8.00
2018-01-20T09:19:10.744Z,4.00
2018-01-20T09:21:05.392Z,4.00
2018-01-20T09:22:04.783Z,8.00
2018-01-20T09:23:57.503Z,4.00
2018-01-20T09:24:57.679Z,4.00
2018-01-20T09:26:51.689Z,4.00
2018-01-20T09:27:51.585Z,0.00
2018-01-20T09:29:46.467Z,4.00
2018-01-20T09:30:45.449Z,4.00
2018-01-20T09:32:39.682Z,4.00
2018-01-20T09:33:39.591Z,8.00
2018-01-20T09:35:33.731Z,4.00
2018-01-20T09:36:33.611Z,4.00
2018-01-20T09:38:26.456Z,4.00
2018-01-20T09:39:26.358Z,4.00
2018-01-20T09:41:19.239Z,4.00
2018-01-20T09:42:19.104Z,4.00
2018-01-20T09:44:11.948Z,4.00
2018-01-20T09:45:11.858Z,4.00
2018-01-20T09:47:04.828Z,4.00
2018-01-20T09:48:04.708Z,4.00
2018-01-20T09:49:57.558Z,4.00
2018-01-20T09:50:57.460Z,4.00
2018-01-20T09:52:50.359Z,4.00
2018-01-20T09:53:50.212Z,8.00
2018-01-20T09:55:43.157Z,8.00
2018-01-20T09:56:43.207Z,4.00
2018-01-20T09:58:36.228Z,4.00
2018-01-20T09:59:35.837Z,4.00
2018-01-20T10:01:28.779Z,4.00
2018-01-20T10:02:28.673Z,0.00
2018-01-20T10:04:22.060Z,0.00
2018-01-20T10:05:21.531Z,0.00
2018-01-20T10:07:14.872Z,0.00
2018-01-20T10:08:14.663Z,0.00
2018-01-20T10:10:07.919Z,0.00
2018-01-20T10:11:07.881Z,4.00
2018-01-20T10:13:00.882Z,0.00
2018-01-20T10:14:00.494Z,4.00
2018-01-20T10:15:54.724Z,4.00
2018-01-20T10:16:54.619Z,4.00
2018-01-20T10:18:49.469Z,4.00
2018-01-20T10:19:49.758Z,4.00
2018-01-20T10:21:43.610Z,0.00
2018-01-20T10:22:43.527Z,4.00
2018-01-20T10:24:37.764Z,4.00
2018-01-20T10:25:37.683Z,4.00
2018-01-20T10:27:32.298Z,4.00
2018-01-20T10:28:32.138Z,4.00
2018-01-20T10:30:25.195Z,4.00
2018-01-20T10:31:24.941Z,0.00
2018-01-20T10:33:18.344Z,4.00
2018-01-20T10:34:17.520Z,4.00
2018-01-20T10:36:11.239Z,4.00
2018-01-20T10:37:10.392Z,4.00
2018-01-20T10:39:04.477Z,4.00
2018-01-20T10:40:03.213Z,4.00
2018-01-20T10:41:57.480Z,4.00
2018-01-20T10:42:57.372Z,4.00
2018-01-20T10:44:51.554Z,4.00
2018-01-20T10:45:51.391Z,4.00
2018-01-20T10:47:44.752Z,4.00
2018-01-20T10:48:44.356Z,4.00
2018-01-20T10:50:38.485Z,4.00
2018-01-20T10:51:38.366Z,8.00
2018-01-20T10:53:32.631Z,4.00
2018-01-20T10:54:32.550Z,4.00
2018-01-20T10:56:26.831Z,4.00
2018-01-20T10:57:26.385Z,4.00
2018-01-20T10:59:19.746Z,12.00
2018-01-20T11:00:19.244Z,4.00
2018-01-20T11:02:12.480Z,8.00
2018-01-20T11:03:12.069Z,16.00
2018-01-20T11:05:05.435Z,12.00
2018-01-20T11:06:05.316Z,4.00
2018-01-20T11:07:59.260Z,16.00
2018-01-20T11:08:59.137Z,12.00
2018-01-20T11:10:53.583Z,8.00
2018-01-20T11:11:53.124Z,8.00
2018-01-20T11:13:46.888Z,8.00
2018-01-20T11:14:46.243Z,4.00
2018-01-20T11:16:38.910Z,0.00
2018-01-20T11:17:39.188Z,4.00
2018-01-20T11:19:31.944Z,4.00
2018-01-20T11:20:31.638Z,4.00
2018-01-20T11:22:25.315Z,4.00
2018-01-20T11:23:24.659Z,0.00
2018-01-20T11:25:17.866Z,4.00
2018-01-20T11:26:17.684Z,4.00
2018-01-20T11:28:10.809Z,4.00
2018-01-20T11:29:11.236Z,4.00
2018-01-20T11:31:04.483Z,4.00
2018-01-20T11:32:04.357Z,0.00
2018-01-20T11:33:59.578Z,4.00
2018-01-20T11:34:58.274Z,0.00
2018-01-20T11:36:51.614Z,0.00
2018-01-20T11:37:51.235Z,4.00
2018-01-20T11:39:44.063Z,4.00
2018-01-20T11:40:43.983Z,4.00
2018-01-20T11:42:38.233Z,4.00
2018-01-20T11:43:38.121Z,4.00
2018-01-20T11:45:32.801Z,0.00
2018-01-20T11:46:32.516Z,0.00
2018-01-20T11:48:25.600Z,0.00
2018-01-20T11:49:25.889Z,0.00
2018-01-20T11:51:19.736Z,4.00
2018-01-20T11:52:19.656Z,4.00
2018-01-20T11:54:14.061Z,4.00
2018-01-20T11:55:13.860Z,4.00
2018-01-20T11:57:06.885Z,4.00
2018-01-20T11:58:07.550Z,4.00
2018-01-20T12:00:00.420Z,4.00
2018-01-20T12:01:00.551Z,0.00
2018-01-20T12:02:53.334Z,0.00
2018-01-20T12:03:53.417Z,0.00
2018-01-20T12:05:45.999Z,0.00
2018-01-20T12:06:45.954Z,0.00
2018-01-20T12:08:39.733Z,0.00
2018-01-20T12:09:38.731Z,0.00
2018-01-20T12:11:32.094Z,0.00
2018-01-20T12:12:31.599Z,4.00
2018-01-20T12:14:24.763Z,4.00
2018-01-20T12:15:24.618Z,4.00
2018-01-20T12:17:17.404Z,4.00
2018-01-20T12:18:17.289Z,4.00
2018-01-20T12:20:10.240Z,4.00
2018-01-20T12:21:10.168Z,4.00
2018-01-20T12:23:03.108Z,4.00
2018-01-20T12:24:02.985Z,4.00
2018-01-20T12:25:55.949Z,0.00
2018-01-20T12:26:55.845Z,0.00
2018-01-20T12:28:48.793Z,0.00
2018-01-20T12:29:48.690Z,0.00
2018-01-20T12:31:41.629Z,0.00
2018-01-20T12:32:42.459Z,0.00
2018-01-20T12:34:34.513Z,0.00
2018-01-20T12:35:34.395Z,0.00
2018-01-20T12:37:27.343Z,4.00
2018-01-20T12:38:27.265Z,4.00
2018-01-20T12:40:20.200Z,4.00
2018-01-20T12:41:20.102Z,4.00
2018-01-20T12:43:13.045Z,4.00
2018-01-20T12:44:13.234Z,4.00
2018-01-20T12:46:05.922Z,4.00
2018-01-20T12:47:05.800Z,0.00
2018-01-20T12:48:58.796Z,0.00
2018-01-20T12:49:58.652Z,0.00
2018-01-20T12:51:51.611Z,4.00
2018-01-20T12:52:51.715Z,4.00
2018-01-20T12:54:44.839Z,4.00
2018-01-20T12:55:44.633Z,4.00
2018-01-20T12:57:37.336Z,4.00
2018-01-20T12:58:37.613Z,4.00
2018-01-20T13:00:30.870Z,4.00
2018-01-20T13:01:30.418Z,4.00
2018-01-20T13:03:23.026Z,0.00
2018-01-20T13:04:24.225Z,0.00
2018-01-20T13:06:15.900Z,0.00
2018-01-20T13:07:17.066Z,0.00
2018-01-20T13:09:08.882Z,0.00
2018-01-20T13:10:09.918Z,0.00
2018-01-20T13:12:02.853Z,0.00
2018-01-20T13:13:02.776Z,4.00
2018-01-20T13:14:57.195Z,4.00
2018-01-20T13:15:57.617Z,4.00
2018-01-20T13:17:49.926Z,4.00
2018-01-20T13:18:49.634Z,4.00
2018-01-20T13:20:42.894Z,4.00
2018-01-20T13:21:42.180Z,4.00
2018-01-20T13:23:35.147Z,4.00
2018-01-20T13:24:34.962Z,4.00
2018-01-20T13:26:27.929Z,4.00
2018-01-20T13:27:28.003Z,4.00
2018-01-20T13:29:20.877Z,4.00
2018-01-20T13:30:20.531Z,4.00
2018-01-20T13:32:13.809Z,4.00
2018-01-20T13:33:13.282Z,4.00
2018-01-20T13:35:07.246Z,4.00
2018-01-20T13:36:07.128Z,4.00
2018-01-20T13:37:59.609Z,4.00
2018-01-20T13:38:59.909Z,4.00
2018-01-20T13:40:52.717Z,4.00
2018-01-20T13:41:52.642Z,4.00
2018-01-20T13:43:46.556Z,4.00
2018-01-20T13:44:46.491Z,4.00
2018-01-20T13:46:40.738Z,4.00
2018-01-20T13:47:40.404Z,4.00
2018-01-20T13:49:33.684Z,4.00
2018-01-20T13:50:33.202Z,4.00
2018-01-20T13:52:26.077Z,0.00
2018-01-20T13:53:25.989Z,0.00
2018-01-20T13:55:18.854Z,0.00
2018-01-20T13:56:18.923Z,0.00
2018-01-20T13:58:11.654Z,0.00
2018-01-20T13:59:11.806Z,0.00
2018-01-20T14:01:04.265Z,0.00
2018-01-20T14:02:04.156Z,0.00
2018-01-20T14:03:56.988Z,0.00
2018-01-20T14:04:57.268Z,0.00
2018-01-20T14:06:50.527Z,4.00
2018-01-20T14:07:50.037Z,4.00
2018-01-20T14:09:43.876Z,4.00
2018-01-20T14:10:43.795Z,4.00
2018-01-20T14:12:37.937Z,4.00
2018-01-20T14:13:37.814Z,0.00
2018-01-20T14:15:32.072Z,4.00
2018-01-20T14:16:31.978Z,4.00
2018-01-20T14:18:25.997Z,4.00
2018-01-20T14:19:25.934Z,4.00
2018-01-20T14:21:18.753Z,4.00
2018-01-20T14:22:18.616Z,4.00
2018-01-20T14:24:11.904Z,4.00
2018-01-20T14:25:11.778Z,4.00
2018-01-20T14:27:06.010Z,0.00
2018-01-20T14:28:05.919Z,0.00
2018-01-20T14:30:00.189Z,0.00
2018-01-20T14:31:00.155Z,0.00
2018-01-20T14:32:54.461Z,0.00
2018-01-20T14:33:54.310Z,0.00
2018-01-20T14:35:48.212Z,0.00
2018-01-20T14:36:48.115Z,0.00
2018-01-20T14:38:41.357Z,0.00
2018-01-20T14:39:40.870Z,0.00
2018-01-20T14:41:33.804Z,0.00
2018-01-20T14:42:33.598Z,0.00
2018-01-20T14:44:27.799Z,0.00
2018-01-20T14:45:27.294Z,0.00
2018-01-20T14:47:21.549Z,0.00
2018-01-20T14:48:21.432Z,0.00
2018-01-20T14:50:15.695Z,0.00
2018-01-20T14:51:15.610Z,0.00
2018-01-20T14:53:09.653Z,0.00
2018-01-20T14:54:09.920Z,0.00
2018-01-20T14:56:03.185Z,0.00
2018-01-20T14:57:02.737Z,0.00
2018-01-20T14:58:55.584Z,0.00
2018-01-20T14:59:55.763Z,0.00
2018-01-20T15:01:50.278Z,0.00
2018-01-20T15:02:49.620Z,0.00
2018-01-20T15:04:43.780Z,0.00
2018-01-20T15:05:43.491Z,0.00
2018-01-20T15:07:37.733Z,0.00
2018-01-20T15:08:37.656Z,0.00
2018-01-20T15:10:31.912Z,0.00
2018-01-20T15:11:31.811Z,0.00
2018-01-20T15:13:25.090Z,0.00
2018-01-20T15:14:25.005Z,0.00
2018-01-20T15:16:19.333Z,0.00
2018-01-20T15:17:19.207Z,0.00
2018-01-20T15:19:13.465Z,0.00
2018-01-20T15:20:13.413Z,0.00
2018-01-20T15:22:07.671Z,0.00
2018-01-20T15:23:08.215Z,0.00
2018-01-20T15:25:01.527Z,0.00
2018-01-20T15:26:01.443Z,0.00
2018-01-20T15:27:55.697Z,0.00
2018-01-20T15:28:55.601Z,0.00
2018-01-20T15:30:49.910Z,0.00
2018-01-20T15:31:49.807Z,0.00
2018-01-20T15:33:44.122Z,0.00
2018-01-20T15:34:43.993Z,0.00
2018-01-20T15:36:38.234Z,0.00
2018-01-20T15:37:38.144Z,0.00
2018-01-20T15:39:32.996Z,0.00
2018-01-20T15:40:32.856Z,0.00
2018-01-20T15:42:25.592Z,0.00
2018-01-20T15:43:25.205Z,0.00
2018-01-20T15:45:18.618Z,0.00
2018-01-20T15:46:18.197Z,0.00
2018-01-20T15:48:11.577Z,0.00
2018-01-20T15:49:10.759Z,0.00
2018-01-20T15:51:04.999Z,0.00
2018-01-20T15:52:04.885Z,0.00
2018-01-20T15:53:59.147Z,0.00
2018-01-20T15:54:59.060Z,0.00
2018-01-20T15:56:52.314Z,0.00
2018-01-20T15:57:52.197Z,0.00
2018-01-20T15:59:46.726Z,0.00
2018-01-20T16:00:46.396Z,0.00
2018-01-20T16:02:39.354Z,0.00
2018-01-20T16:03:39.194Z,0.00
2018-01-20T16:05:32.059Z,0.00
2018-01-20T16:06:31.737Z,0.00
2018-01-20T16:08:24.526Z,0.00
2018-01-20T16:09:24.640Z,0.00
2018-01-20T16:11:17.598Z,0.00
2018-01-20T16:12:17.503Z,0.00
2018-01-20T16:14:11.379Z,0.00
2018-01-20T16:15:11.239Z,0.00
2018-01-20T16:17:05.599Z,0.00
2018-01-20T16:18:05.456Z,0.00
2018-01-20T16:19:59.301Z,0.00
2018-01-20T16:20:59.211Z,0.00
2018-01-20T16:22:53.320Z,0.00
2018-01-20T16:23:53.217Z,0.00
2018-01-20T16:25:46.464Z,0.00
2018-01-20T16:26:45.985Z,0.00
2018-01-20T16:28:40.258Z,0.00
2018-01-20T16:29:40.155Z,0.00
2018-01-20T16:31:34.437Z,0.00
2018-01-20T16:32:34.310Z,0.00
2018-01-20T16:34:27.578Z,0.00
2018-01-20T16:35:27.488Z,0.00
2018-01-20T16:37:21.682Z,0.00
2018-01-20T16:38:21.494Z,0.00
2018-01-20T16:40:15.721Z,0.00
2018-01-20T16:41:15.632Z,0.00
2018-01-20T16:43:09.652Z,0.00
2018-01-20T16:44:09.901Z,0.00
2018-01-20T16:46:03.778Z,0.00
2018-01-20T16:47:03.686Z,0.00
2018-01-20T16:48:58.051Z,0.00
2018-01-20T16:49:57.932Z,0.00
2018-01-20T16:51:51.929Z,0.00
2018-01-20T16:52:51.838Z,0.00
2018-01-20T16:54:45.981Z,0.00
2018-01-20T16:55:45.879Z,0.00
2018-01-20T16:57:40.137Z,0.00
2018-01-20T16:58:40.040Z,0.00
2018-01-20T17:00:34.338Z,0.00
2018-01-20T17:01:34.233Z,0.00
2018-01-20T17:03:28.509Z,0.00
2018-01-20T17:04:28.414Z,0.00
2018-01-20T17:06:22.911Z,0.00
2018-01-20T17:07:22.802Z,0.00
2018-01-20T17:09:17.169Z,0.00
2018-01-20T17:10:17.071Z,0.00
2018-01-20T17:12:11.340Z,0.00
2018-01-20T17:13:11.221Z,0.00
2018-01-20T17:15:04.477Z,0.00
2018-01-20T17:16:04.390Z,20.00
2018-01-20T17:17:58.684Z,20.00
2018-01-20T17:18:58.569Z,20.00
2018-01-20T17:20:52.830Z,20.00
2018-01-20T17:21:52.727Z,20.00
2018-01-20T17:23:50.167Z,24.00
2018-01-20T17:24:50.037Z,20.00
2018-01-20T17:26:44.932Z,24.00
2018-01-20T17:27:44.482Z,20.00
2018-01-20T17:29:37.673Z,24.00
2018-01-20T17:30:37.174Z,24.00
2018-01-20T17:32:30.018Z,24.00
2018-01-20T17:33:29.922Z,24.00
2018-01-20T17:35:24.189Z,20.00
2018-01-20T17:36:24.079Z,20.00
2018-01-20T17:38:18.409Z,20.00
2018-01-20T17:39:18.320Z,20.00
2018-01-20T17:41:12.608Z,20.00
2018-01-20T17:42:12.501Z,24.00
2018-01-20T17:44:05.763Z,20.00
2018-01-20T17:45:05.668Z,20.00
2018-01-20T17:46:59.951Z,20.00
2018-01-20T17:47:59.812Z,20.00
2018-01-20T17:49:53.106Z,20.00
2018-01-20T17:50:53.031Z,20.00
2018-01-20T17:52:47.313Z,20.00
2018-01-20T17:53:47.193Z,20.00
2018-01-20T17:55:42.366Z,24.00
2018-01-20T17:56:41.346Z,20.00
2018-01-20T17:58:35.617Z,20.00
2018-01-20T17:59:35.542Z,24.00
2018-01-20T18:01:30.356Z,20.00
2018-01-20T18:02:29.825Z,20.00
2018-01-20T18:04:22.788Z,20.00
2018-01-20T18:05:23.504Z,20.00
2018-01-20T18:07:17.200Z,24.00
2018-01-20T18:08:15.424Z,20.00
2018-01-20T18:10:09.679Z,20.00
2018-01-20T18:11:09.594Z,24.00
2018-01-20T18:13:03.982Z,20.00
2018-01-20T18:14:03.480Z,0.00
2018-01-20T18:15:57.756Z,0.00
2018-01-20T18:16:57.643Z,0.00
2018-01-20T18:18:51.880Z,0.00
2018-01-20T18:19:51.794Z,0.00
2018-01-20T18:21:45.115Z,0.00
2018-01-20T18:22:45.019Z,0.00
2018-01-20T18:24:39.363Z,0.00
2018-01-20T18:25:38.900Z,0.00
2018-01-20T18:27:33.139Z,0.00
2018-01-20T18:28:33.025Z,0.00
2018-01-20T18:30:26.305Z,0.00
2018-01-20T18:31:26.199Z,0.00
2018-01-20T18:33:20.594Z,0.00
2018-01-20T18:34:20.291Z,0.00
2018-01-20T18:36:14.374Z,0.00
2018-01-20T18:37:14.271Z,0.00
2018-01-20T18:39:07.559Z,0.00
2018-01-20T18:40:07.451Z,0.00
2018-01-20T18:42:00.729Z,0.00
2018-01-20T18:43:00.639Z,0.00
2018-01-20T18:44:53.968Z,0.00
2018-01-20T18:45:53.845Z,0.00
2018-01-20T18:47:47.094Z,0.00
2018-01-20T18:48:47.007Z,0.00
2018-01-20T18:50:41.257Z,0.00
2018-01-20T18:51:40.894Z,0.00
2018-01-20T18:53:33.781Z,0.00
2018-01-20T18:54:33.954Z,0.00
2018-01-20T18:56:28.118Z,0.00
2018-01-20T18:57:27.820Z,0.00
2018-01-20T18:59:22.385Z,0.00
2018-01-20T19:00:21.759Z,0.00
2018-01-20T19:02:14.580Z,0.00
2018-01-20T19:03:14.446Z,0.00
2018-01-20T19:05:08.687Z,0.00
2018-01-20T19:06:08.598Z,0.00
2018-01-20T19:08:02.884Z,40.00
2018-01-20T19:09:02.787Z,40.00
2018-01-20T19:10:56.818Z,40.00
2018-01-20T19:11:56.951Z,40.00